Bayanhongor, Mongolia
Current Conditions -  °F | °C
As of 6:00 PM on Sunday 21 Dec 2014 (Local Time) from ZMUB Reporting Station
Clear Clear  
Wind Chill: -9°   Ceiling: Unl
Heat Index:   Visibility: 6mi
Dew Point: -2°   Wind: 7mph
Humidity: 78%   Direction: 170°S
Pressure: 30.12"   Gusts: NA
Location:  46.13°N, 100.68°E
Report Text: ZMUB 211000Z 17003MPS CAVOK M16/M19 Q1020 NOSIG RMK QFE657.1 73
Loading
Personal Weather Stations






























Interactive Weather Map New forecast layout! Learn more

10-Day Weather Forecast

Advertisements
Track Severe Weather on mobile